createdAt,value
2023-04-03T00:00:39.334Z,100417.81
2023-04-03T00:03:18.902Z,100415.13
2023-04-03T00:05:47.088Z,100413.41
2023-04-03T00:08:15.798Z,100402.34
2023-04-03T00:10:43.825Z,100400.16
2023-04-03T00:13:11.699Z,100399.19
2023-04-03T00:15:39.774Z,100404.00
2023-04-03T00:18:08.326Z,100400.44
2023-04-03T00:20:36.237Z,100406.06
2023-04-03T00:23:04.570Z,100401.63
2023-04-03T00:25:32.221Z,100396.75
2023-04-03T00:28:00.529Z,100399.91
2023-04-03T00:30:28.277Z,100406.16
2023-04-03T00:32:56.198Z,100397.03
2023-04-03T00:35:24.518Z,100391.66
2023-04-03T00:37:54.059Z,100400.69
2023-04-03T00:40:23.159Z,100397.13
2023-04-03T00:42:53.879Z,100389.63
2023-04-03T00:45:27.098Z,100400.13
2023-04-03T00:47:55.627Z,100389.16
2023-04-03T00:50:23.900Z,100393.03
2023-04-03T00:52:52.078Z,100394.28
2023-04-03T00:55:20.868Z,100396.72
2023-04-03T00:57:49.089Z,100395.38
2023-04-03T01:00:19.270Z,100399.41
2023-04-03T01:02:47.321Z,100387.78
2023-04-03T01:05:17.813Z,100385.31
2023-04-03T01:07:46.313Z,100382.84
2023-04-03T01:10:15.760Z,100386.78
2023-04-03T01:12:46.672Z,100395.41
2023-04-03T01:15:20.725Z,100391.13
2023-04-03T01:17:50.300Z,100394.16
2023-04-03T01:20:20.930Z,100390.03
2023-04-03T01:23:07.683Z,100383.53
2023-04-03T01:25:37.797Z,100376.81
2023-04-03T01:28:06.784Z,100383.53
2023-04-03T01:30:38.136Z,100385.44
2023-04-03T01:33:06.547Z,100382.66
2023-04-03T01:35:34.935Z,100387.22
2023-04-03T01:38:02.810Z,100384.97
2023-04-03T01:40:30.791Z,100386.84
2023-04-03T01:42:59.034Z,100379.06
2023-04-03T01:45:26.894Z,100376.28
2023-04-03T01:47:55.476Z,100372.13
2023-04-03T01:50:25.701Z,100383.16
2023-04-03T01:52:54.183Z,100383.66
2023-04-03T01:55:21.722Z,100368.75
2023-04-03T01:57:49.821Z,100376.38
2023-04-03T02:00:17.684Z,100381.03
2023-04-03T02:02:46.569Z,100375.03
2023-04-03T02:05:15.665Z,100374.22
2023-04-03T02:07:43.623Z,100381.88
2023-04-03T02:10:11.569Z,100379.13
2023-04-03T02:12:39.628Z,100371.75
2023-04-03T02:15:07.639Z,100368.56
2023-04-03T02:17:36.534Z,100369.66
2023-04-03T02:20:05.148Z,100377.47
2023-04-03T02:22:35.078Z,100367.69
2023-04-03T02:25:02.792Z,100373.72
2023-04-03T02:27:31.226Z,100369.53
2023-04-03T02:29:58.824Z,100373.78
2023-04-03T02:32:26.895Z,100366.84
2023-04-03T02:34:54.677Z,100379.88
2023-04-03T02:37:22.647Z,100371.09
2023-04-03T02:39:52.027Z,100371.22
2023-04-03T02:42:20.041Z,100383.34
2023-04-03T02:44:47.770Z,100379.53
2023-04-03T02:47:15.700Z,100382.41
2023-04-03T02:49:46.457Z,100375.38
2023-04-03T02:52:15.178Z,100376.69
2023-04-03T02:54:42.737Z,100371.53
2023-04-03T02:57:12.200Z,100370.41
2023-04-03T02:59:42.746Z,100371.53
2023-04-03T03:02:12.777Z,100375.22
2023-04-03T03:04:40.466Z,100376.25
2023-04-03T03:07:08.394Z,100378.25
2023-04-03T03:09:35.904Z,100383.13
2023-04-03T03:12:03.894Z,100382.53
2023-04-03T03:14:31.637Z,100386.56
2023-04-03T03:16:59.514Z,100387.59
2023-04-03T03:19:27.648Z,100383.59
2023-04-03T03:21:55.601Z,100388.25
2023-04-03T03:24:23.848Z,100386.28
2023-04-03T03:26:51.742Z,100381.78
2023-04-03T03:29:19.388Z,100384.63
2023-04-03T03:31:47.619Z,100385.81
2023-04-03T03:34:15.287Z,100385.44
2023-04-03T03:36:43.186Z,100384.84
2023-04-03T03:39:11.398Z,100385.97
2023-04-03T03:41:39.337Z,100388.00
2023-04-03T03:44:07.619Z,100386.13
2023-04-03T03:46:35.822Z,100387.50
2023-04-03T03:49:03.438Z,100388.09
2023-04-03T03:51:31.605Z,100391.31
2023-04-03T03:53:59.354Z,100400.97
2023-04-03T03:56:28.076Z,100395.38
2023-04-03T03:58:57.338Z,100404.16
2023-04-03T04:01:25.744Z,100404.75
2023-04-03T04:03:55.286Z,100408.97
2023-04-03T04:06:27.691Z,100402.47
2023-04-03T04:08:59.198Z,100409.28
2023-04-03T04:11:28.283Z,100409.53
2023-04-03T04:13:56.876Z,100406.41
2023-04-03T04:16:28.428Z,100409.69
2023-04-03T04:18:58.227Z,100399.06
2023-04-03T04:21:27.769Z,100405.66
2023-04-03T04:23:55.845Z,100401.88
2023-04-03T04:26:25.450Z,100404.66
2023-04-03T04:28:53.013Z,100398.69
2023-04-03T04:31:21.610Z,100403.50
2023-04-03T04:33:50.100Z,100404.28
2023-04-03T04:36:18.071Z,100403.31
2023-04-03T04:38:47.782Z,100405.63
2023-04-03T04:41:17.300Z,100402.84
2023-04-03T04:43:46.048Z,100405.22
2023-04-03T04:46:14.066Z,100408.97
2023-04-03T04:48:46.912Z,100408.50
2023-04-03T04:51:16.228Z,100413.88
2023-04-03T04:53:44.077Z,100408.59
2023-04-03T04:56:14.830Z,100408.59
2023-04-03T04:58:43.544Z,100417.91
2023-04-03T05:01:12.037Z,100420.31
2023-04-03T05:03:49.138Z,100419.56
2023-04-03T05:06:18.280Z,100421.59
2023-04-03T05:08:46.722Z,100421.47
2023-04-03T05:11:14.846Z,100426.16
2023-04-03T05:13:44.272Z,100429.31
2023-04-03T05:16:12.557Z,100427.63
2023-04-03T05:18:40.075Z,100436.41
2023-04-03T05:21:11.406Z,100438.41
2023-04-03T05:23:38.980Z,100442.66
2023-04-03T05:26:07.680Z,100443.16
2023-04-03T05:28:36.636Z,100450.94
2023-04-03T05:31:04.690Z,100446.13
2023-04-03T05:33:36.241Z,100450.00
2023-04-03T05:36:06.946Z,100451.84
2023-04-03T05:38:41.017Z,100458.41
2023-04-03T05:41:09.142Z,100458.47
2023-04-03T05:43:39.091Z,100459.28
2023-04-03T05:46:13.088Z,100459.34
2023-04-03T05:48:42.439Z,100467.81
2023-04-03T05:51:20.667Z,100459.88
2023-04-03T05:53:53.910Z,100459.53
2023-04-03T05:56:21.791Z,100452.72
2023-04-03T05:58:49.457Z,100458.69
2023-04-03T06:01:17.392Z,100464.56
2023-04-03T06:03:46.219Z,100462.41
2023-04-03T06:06:16.583Z,100466.75
2023-04-03T06:08:44.868Z,100462.06
2023-04-03T06:11:13.718Z,100466.72
2023-04-03T06:13:41.352Z,100461.78
2023-04-03T06:16:11.407Z,100463.38
2023-04-03T06:18:40.572Z,100467.25
2023-04-03T06:21:09.061Z,100462.41
2023-04-03T06:23:36.842Z,100472.06
2023-04-03T06:26:04.701Z,100477.59
2023-04-03T06:28:32.231Z,100468.72
2023-04-03T06:31:00.210Z,100471.69
2023-04-03T06:33:27.741Z,100475.25
2023-04-03T06:35:59.580Z,100472.63
2023-04-03T06:38:27.255Z,100478.00
2023-04-03T06:40:55.107Z,100473.13
2023-04-03T06:43:24.317Z,100477.91
2023-04-03T06:45:52.847Z,100479.75
2023-04-03T06:48:20.393Z,100476.28
2023-04-03T06:50:48.554Z,100482.78
2023-04-03T06:53:16.454Z,100481.75
2023-04-03T06:55:44.220Z,100475.16
2023-04-03T06:58:11.758Z,100479.22
2023-04-03T07:00:39.866Z,100474.19
2023-04-03T07:03:07.814Z,100484.16
2023-04-03T07:05:36.082Z,100473.34
2023-04-03T07:08:04.261Z,100475.31
2023-04-03T07:10:32.809Z,100481.31
2023-04-03T07:13:00.284Z,100478.06
2023-04-03T07:15:28.111Z,100476.34
2023-04-03T07:17:55.675Z,100481.59
2023-04-03T07:20:23.502Z,100494.41
2023-04-03T07:22:51.754Z,100485.56
2023-04-03T07:25:19.536Z,100495.22
2023-04-03T07:27:47.062Z,100487.75
2023-04-03T07:30:15.293Z,100500.81
2023-04-03T07:32:42.782Z,100501.28
2023-04-03T07:35:10.758Z,100501.72
2023-04-03T07:37:38.442Z,100509.25
2023-04-03T07:40:07.845Z,100504.41
2023-04-03T07:42:36.215Z,100511.63
2023-04-03T07:45:04.682Z,100510.16
2023-04-03T07:47:32.543Z,100507.94
2023-04-03T07:50:00.395Z,100508.63
2023-04-03T07:52:27.932Z,100512.44
2023-04-03T07:54:55.828Z,100512.75
2023-04-03T07:57:23.478Z,100506.78
2023-04-03T07:59:51.451Z,100516.28
2023-04-03T08:02:18.922Z,100521.44
2023-04-03T08:04:46.930Z,100514.81
2023-04-03T08:07:14.670Z,100509.50
2023-04-03T08:09:43.162Z,100518.56
2023-04-03T08:12:12.573Z,100511.00
2023-04-03T08:14:40.441Z,100518.72
2023-04-03T08:17:10.560Z,100505.94
2023-04-03T08:19:41.581Z,100500.59
2023-04-03T08:22:09.110Z,100511.94
2023-04-03T08:24:37.752Z,100517.78
2023-04-03T08:27:06.861Z,100519.00
2023-04-03T08:29:34.854Z,100514.78
2023-04-03T08:32:02.372Z,100519.88
2023-04-03T08:34:30.251Z,100523.28
2023-04-03T08:36:57.761Z,100508.31
2023-04-03T08:39:26.026Z,100524.56
2023-04-03T08:41:56.502Z,100517.94
2023-04-03T08:44:33.366Z,100511.66
2023-04-03T08:47:03.667Z,100513.50
2023-04-03T08:49:37.517Z,100517.88
2023-04-03T08:52:12.220Z,100518.09
2023-04-03T08:54:49.907Z,100521.59
2023-04-03T08:57:18.735Z,100517.41
2023-04-03T08:59:47.205Z,100516.97
2023-04-03T09:02:36.127Z,100517.41
2023-04-03T09:05:13.447Z,100514.97
2023-04-03T09:07:43.893Z,100513.28
2023-04-03T09:10:13.646Z,100515.66
2023-04-03T09:12:44.536Z,100518.41
2023-04-03T09:15:27.899Z,100517.63
2023-04-03T09:18:03.756Z,100524.59
2023-04-03T09:20:31.664Z,100511.06
2023-04-03T09:22:59.222Z,100527.94
2023-04-03T09:25:29.980Z,100523.03
2023-04-03T09:27:58.646Z,100512.25
2023-04-03T09:30:27.021Z,100502.59
2023-04-03T09:32:55.871Z,100507.97
2023-04-03T09:35:29.846Z,100515.19
2023-04-03T09:38:03.649Z,100516.22
2023-04-03T09:40:35.950Z,100514.34
2023-04-03T09:43:21.080Z,100504.97
2023-04-03T09:45:49.960Z,100511.66
2023-04-03T09:48:25.277Z,100510.31
2023-04-03T09:50:57.752Z,100512.75
2023-04-03T09:53:31.567Z,100516.38
2023-04-03T09:56:00.140Z,100504.72
2023-04-03T09:58:46.759Z,100500.56
2023-04-03T10:01:26.728Z,100506.41
2023-04-03T10:04:05.587Z,100508.81
2023-04-03T10:06:36.842Z,100501.94
2023-04-03T10:09:07.575Z,100495.31
2023-04-03T10:11:35.483Z,100508.31
2023-04-03T10:14:07.265Z,100495.94
2023-04-03T10:16:49.089Z,100502.03
2023-04-03T10:19:27.347Z,100486.66
2023-04-03T10:21:55.242Z,100489.13
2023-04-03T10:24:26.406Z,100488.28
2023-04-03T10:27:07.580Z,100497.63
2023-04-03T10:29:51.048Z,100488.28
2023-04-03T10:32:18.922Z,100488.50
2023-04-03T10:34:58.604Z,100488.34
2023-04-03T10:37:52.979Z,100492.75
2023-04-03T10:40:20.446Z,100489.53
2023-04-03T10:42:54.289Z,100491.69
2023-04-03T10:45:30.922Z,100484.84
2023-04-03T10:48:08.023Z,100475.94
2023-04-03T10:50:54.403Z,100482.00
2023-04-03T10:53:42.800Z,100475.38
2023-04-03T10:56:15.851Z,100469.19
2023-04-03T10:58:46.142Z,100475.44
2023-04-03T11:01:17.002Z,100474.69
2023-04-03T11:03:47.372Z,100484.19
2023-04-03T11:06:16.473Z,100460.66
2023-04-03T11:08:50.275Z,100467.69
2023-04-03T11:11:21.521Z,100457.00
2023-04-03T11:13:52.454Z,100453.91
2023-04-03T11:16:28.467Z,100459.94
2023-04-03T11:19:32.296Z,100455.50
2023-04-03T11:22:07.241Z,100449.50
2023-04-03T11:24:37.383Z,100445.69
2023-04-03T11:27:06.496Z,100443.47
2023-04-03T11:29:37.845Z,100450.28
2023-04-03T11:32:08.533Z,100448.91
2023-04-03T11:34:44.446Z,100453.75
2023-04-03T11:37:14.754Z,100450.34
2023-04-03T11:39:49.175Z,100432.38
2023-04-03T11:42:16.772Z,100434.75
2023-04-03T11:44:44.702Z,100436.00
2023-04-03T11:47:13.390Z,100439.88
2023-04-03T11:49:56.617Z,100432.00
2023-04-03T11:52:41.500Z,100421.66
2023-04-03T11:55:31.538Z,100437.88
2023-04-03T11:57:59.149Z,100419.31
2023-04-03T12:00:48.491Z,100422.47
2023-04-03T12:03:33.882Z,100410.56
2023-04-03T12:06:08.344Z,100423.09
2023-04-03T12:08:45.626Z,100412.78
2023-04-03T12:11:13.555Z,100412.13
2023-04-03T12:14:04.645Z,100410.06
2023-04-03T12:16:35.281Z,100417.72
2023-04-03T12:19:04.824Z,100403.94
2023-04-03T12:21:35.784Z,100400.56
2023-04-03T12:24:25.075Z,100396.84
2023-04-03T12:27:02.932Z,100395.38
2023-04-03T12:29:30.372Z,100407.25
2023-04-03T12:32:10.410Z,100390.22
2023-04-03T12:34:38.178Z,100386.53
2023-04-03T12:37:24.963Z,100389.41
2023-04-03T12:39:55.929Z,100382.75
2023-04-03T12:42:34.392Z,100388.22
2023-04-03T12:45:04.694Z,100376.25
2023-04-03T12:47:37.896Z,100370.09
2023-04-03T12:50:06.482Z,100378.31
2023-04-03T12:52:42.125Z,100373.13
2023-04-03T12:55:18.408Z,100370.81
2023-04-03T12:57:46.834Z,100375.03
2023-04-03T13:00:43.676Z,100379.19
2023-04-03T13:03:30.668Z,100373.13
2023-04-03T13:06:00.716Z,100367.94
2023-04-03T13:08:28.577Z,100370.69
2023-04-03T13:11:11.035Z,100373.31
2023-04-03T13:13:40.575Z,100383.63
2023-04-03T13:16:12.327Z,100376.47
2023-04-03T13:18:40.792Z,100378.94
2023-04-03T13:21:13.641Z,100369.84
2023-04-03T13:23:43.863Z,100366.88
2023-04-03T13:26:12.328Z,100376.66
2023-04-03T13:28:41.788Z,100362.91
2023-04-03T13:31:15.770Z,100373.75
2023-04-03T13:33:52.641Z,100359.72
2023-04-03T13:36:22.365Z,100358.84
2023-04-03T13:39:09.153Z,100373.34
2023-04-03T13:41:40.489Z,100360.00
2023-04-03T13:44:23.724Z,100359.28
2023-04-03T13:46:56.420Z,100367.53
2023-04-03T13:49:28.344Z,100358.47
2023-04-03T13:52:07.158Z,100356.88
2023-04-03T13:54:39.745Z,100363.50
2023-04-03T13:57:15.218Z,100350.16
2023-04-03T13:59:44.421Z,100344.50
2023-04-03T14:02:12.112Z,100341.22
2023-04-03T14:04:48.500Z,100344.00
2023-04-03T14:07:17.976Z,100338.94
2023-04-03T14:09:46.275Z,100345.88
2023-04-03T14:12:30.272Z,100337.78
2023-04-03T14:15:00.188Z,100337.59
2023-04-03T14:17:28.889Z,100345.38
2023-04-03T14:19:57.543Z,100341.63
2023-04-03T14:22:26.441Z,100337.69
2023-04-03T14:24:54.454Z,100345.22
2023-04-03T14:27:27.936Z,100336.72
2023-04-03T14:29:56.998Z,100325.03
2023-04-03T14:32:25.600Z,100332.69
2023-04-03T14:34:54.279Z,100325.59
2023-04-03T14:37:27.805Z,100323.56
2023-04-03T14:39:56.127Z,100317.75
2023-04-03T14:42:29.648Z,100320.16
2023-04-03T14:44:58.490Z,100318.09
2023-04-03T14:47:31.817Z,100323.47
2023-04-03T14:50:01.281Z,100316.34
2023-04-03T14:52:31.076Z,100315.13
2023-04-03T14:54:59.109Z,100313.53
2023-04-03T14:57:28.326Z,100313.31
2023-04-03T14:59:56.366Z,100313.59
2023-04-03T15:02:24.048Z,100319.22
2023-04-03T15:04:53.463Z,100308.59
2023-04-03T15:07:21.561Z,100307.91
2023-04-03T15:09:50.588Z,100303.13
2023-04-03T15:12:18.464Z,100306.97
2023-04-03T15:14:52.456Z,100314.38
2023-04-03T15:17:25.273Z,100311.06
2023-04-03T15:19:53.211Z,100313.13
2023-04-03T15:22:21.087Z,100319.00
2023-04-03T15:24:49.201Z,100314.56
2023-04-03T15:27:17.837Z,100309.97
2023-04-03T15:29:46.107Z,100322.66
2023-04-03T15:32:14.049Z,100322.88
2023-04-03T15:34:42.012Z,100319.19
2023-04-03T15:37:09.618Z,100329.47
2023-04-03T15:39:37.476Z,100318.06
2023-04-03T15:42:07.552Z,100305.31
2023-04-03T15:44:35.804Z,100314.94
2023-04-03T15:47:03.885Z,100317.09
2023-04-03T15:49:34.012Z,100315.44
2023-04-03T15:52:01.558Z,100314.38
2023-04-03T15:54:30.676Z,100316.97
2023-04-03T15:56:58.488Z,100312.53
2023-04-03T15:59:26.458Z,100316.88
2023-04-03T16:01:54.280Z,100311.72
2023-04-03T16:04:22.380Z,100309.44
2023-04-03T16:06:50.358Z,100311.84
2023-04-03T16:09:18.335Z,100308.66
2023-04-03T16:11:46.135Z,100314.78
2023-04-03T16:14:13.980Z,100316.56
2023-04-03T16:16:41.617Z,100307.91
2023-04-03T16:19:10.093Z,100313.78
2023-04-03T16:21:37.639Z,100317.09
2023-04-03T16:24:05.778Z,100320.63
2023-04-03T16:26:33.566Z,100322.94
2023-04-03T16:29:01.416Z,100322.59
2023-04-03T16:31:29.477Z,100324.97
2023-04-03T16:33:57.826Z,100325.78
2023-04-03T16:36:26.981Z,100333.69
2023-04-03T16:38:54.877Z,100327.88
2023-04-03T16:41:22.459Z,100335.63
2023-04-03T16:43:51.861Z,100329.91
2023-04-03T16:46:19.673Z,100334.59
2023-04-03T16:48:47.996Z,100336.53
2023-04-03T16:51:15.803Z,100339.06
2023-04-03T16:53:44.108Z,100338.28
2023-04-03T16:56:11.819Z,100342.66
2023-04-03T16:58:39.957Z,100351.94
2023-04-03T17:01:11.912Z,100349.38
2023-04-03T17:03:40.492Z,100357.63
2023-04-03T17:06:08.118Z,100351.06
2023-04-03T17:08:36.309Z,100354.31
2023-04-03T17:11:04.048Z,100360.69
2023-04-03T17:13:33.536Z,100358.97
2023-04-03T17:16:01.464Z,100363.09
2023-04-03T17:18:29.420Z,100368.19
2023-04-03T17:20:57.228Z,100365.47
2023-04-03T17:23:26.698Z,100362.31
2023-04-03T17:25:55.342Z,100357.50
2023-04-03T17:28:28.738Z,100361.13
2023-04-03T17:30:56.755Z,100371.38
2023-04-03T17:33:26.440Z,100363.66
2023-04-03T17:35:57.166Z,100368.19
2023-04-03T17:38:27.231Z,100377.38
2023-04-03T17:40:58.952Z,100377.34
2023-04-03T17:43:27.454Z,100383.25
2023-04-03T17:46:03.730Z,100379.22
2023-04-03T17:48:33.393Z,100395.63
2023-04-03T17:51:04.241Z,100392.72
2023-04-03T17:53:32.660Z,100397.34
2023-04-03T17:56:05.392Z,100396.31
2023-04-03T17:58:33.451Z,100401.63
2023-04-03T18:01:07.763Z,100410.38
2023-04-03T18:03:36.038Z,100410.09
2023-04-03T18:06:08.597Z,100407.09
2023-04-03T18:08:38.995Z,100406.16
2023-04-03T18:11:07.791Z,100418.56
2023-04-03T18:13:37.854Z,100426.31
2023-04-03T18:16:09.802Z,100431.31
2023-04-03T18:18:40.516Z,100438.25
2023-04-03T18:21:09.838Z,100438.97
2023-04-03T18:23:39.470Z,100449.75
2023-04-03T18:26:07.418Z,100447.56
2023-04-03T18:28:35.734Z,100452.69
2023-04-03T18:31:04.137Z,100463.00
2023-04-03T18:33:32.297Z,100465.41
2023-04-03T18:36:00.019Z,100464.22
2023-04-03T18:38:28.149Z,100471.41
2023-04-03T18:40:56.821Z,100474.34
2023-04-03T18:43:26.673Z,100478.72
2023-04-03T18:45:54.722Z,100490.66
2023-04-03T18:48:22.881Z,100484.91
2023-04-03T18:50:50.629Z,100494.41
2023-04-03T18:53:18.731Z,100501.06
2023-04-03T18:55:46.900Z,100492.56
2023-04-03T18:58:14.865Z,100502.56
2023-04-03T19:00:42.889Z,100519.47
2023-04-03T19:03:12.936Z,100519.66
2023-04-03T19:05:40.965Z,100527.34
2023-04-03T19:08:09.528Z,100542.72
2023-04-03T19:10:37.314Z,100545.38
2023-04-03T19:13:05.846Z,100551.16
2023-04-03T19:15:33.679Z,100553.53
2023-04-03T19:18:01.911Z,100563.75
2023-04-03T19:20:29.903Z,100565.22
2023-04-03T19:22:58.054Z,100570.91
2023-04-03T19:25:25.692Z,100574.56
2023-04-03T19:27:53.999Z,100582.47
2023-04-03T19:30:22.212Z,100576.13
2023-04-03T19:32:51.830Z,100577.88
2023-04-03T19:35:19.471Z,100578.50
2023-04-03T19:37:51.271Z,100579.88
2023-04-03T19:40:19.225Z,100584.50
2023-04-03T19:42:47.674Z,100576.69
2023-04-03T19:45:16.703Z,100580.31
2023-04-03T19:47:45.284Z,100584.84
2023-04-03T19:50:12.856Z,100579.47
2023-04-03T19:52:41.104Z,100587.97
2023-04-03T19:55:09.110Z,100594.66
2023-04-03T19:57:37.260Z,100603.47
2023-04-03T20:00:05.473Z,100616.97
2023-04-03T20:02:39.200Z,100601.88
2023-04-03T20:05:07.122Z,100600.97
2023-04-03T20:07:35.271Z,100591.94
2023-04-03T20:10:03.058Z,100602.72
2023-04-03T20:12:31.392Z,100609.88
2023-04-03T20:15:00.271Z,100608.56
2023-04-03T20:17:28.372Z,100600.34
2023-04-03T20:20:01.405Z,100607.13
2023-04-03T20:22:30.727Z,100604.16
2023-04-03T20:25:05.244Z,100615.72
2023-04-03T20:27:35.176Z,100605.06
2023-04-03T20:30:04.352Z,100616.31
2023-04-03T20:32:32.473Z,100615.41
2023-04-03T20:35:04.348Z,100612.63
2023-04-03T20:37:32.994Z,100615.53
2023-04-03T20:40:00.643Z,100618.56
2023-04-03T20:42:28.565Z,100611.34
2023-04-03T20:44:57.507Z,100612.91
2023-04-03T20:47:25.520Z,100610.47
2023-04-03T20:49:53.951Z,100618.31
2023-04-03T20:52:21.868Z,100620.22
2023-04-03T20:54:49.523Z,100622.38
2023-04-03T20:57:17.930Z,100621.34
2023-04-03T20:59:46.476Z,100624.28
2023-04-03T21:02:15.820Z,100628.41
2023-04-03T21:04:46.713Z,100627.16
2023-04-03T21:07:33.632Z,100632.53
2023-04-03T21:10:20.109Z,100625.56
2023-04-03T21:13:06.719Z,100623.09
2023-04-03T21:15:46.277Z,100621.50
2023-04-03T21:18:17.318Z,100619.97
2023-04-03T21:20:47.778Z,100620.38
2023-04-03T21:23:17.071Z,100621.97
2023-04-03T21:25:44.567Z,100627.94
2023-04-03T21:28:12.460Z,100617.47
2023-04-03T21:30:40.462Z,100620.56
2023-04-03T21:33:09.883Z,100621.19
2023-04-03T21:35:38.799Z,100624.63
2023-04-03T21:38:06.700Z,100621.97
2023-04-03T21:40:34.253Z,100630.13
2023-04-03T21:43:02.620Z,100627.63
2023-04-03T21:45:30.252Z,100624.88
2023-04-03T21:47:59.356Z,100628.56
2023-04-03T21:50:26.845Z,100631.91
2023-04-03T21:52:55.036Z,100636.41
2023-04-03T21:55:22.612Z,100632.81
2023-04-03T21:57:51.504Z,100632.00
2023-04-03T22:00:19.549Z,100633.22
2023-04-03T22:02:48.293Z,100640.66
2023-04-03T22:05:16.027Z,100644.00
2023-04-03T22:07:44.478Z,100647.16
2023-04-03T22:10:12.527Z,100639.88
2023-04-03T22:12:40.374Z,100641.97
2023-04-03T22:15:08.629Z,100643.44
2023-04-03T22:17:37.069Z,100640.34
2023-04-03T22:20:04.938Z,100645.69
2023-04-03T22:22:32.835Z,100641.31
2023-04-03T22:25:00.981Z,100643.03
2023-04-03T22:27:30.808Z,100643.63
2023-04-03T22:29:58.383Z,100644.84
2023-04-03T22:32:26.324Z,100644.75
2023-04-03T22:34:53.911Z,100644.06
2023-04-03T22:37:22.060Z,100645.50
2023-04-03T22:39:49.753Z,100652.69
2023-04-03T22:42:17.710Z,100650.00
2023-04-03T22:44:45.172Z,100642.91
2023-04-03T22:47:13.105Z,100646.16
2023-04-03T22:49:40.676Z,100645.88
2023-04-03T22:52:08.773Z,100650.81
2023-04-03T22:54:36.230Z,100649.75
2023-04-03T22:57:04.480Z,100645.50
2023-04-03T22:59:32.843Z,100642.56
2023-04-03T23:02:01.885Z,100638.72
2023-04-03T23:04:29.788Z,100635.16
2023-04-03T23:06:59.134Z,100638.66
2023-04-03T23:09:26.650Z,100646.91
2023-04-03T23:11:54.527Z,100646.66
2023-04-03T23:14:22.953Z,100645.38
2023-04-03T23:16:51.098Z,100651.81
2023-04-03T23:19:18.691Z,100657.47
2023-04-03T23:21:46.839Z,100646.75
2023-04-03T23:24:14.492Z,100651.03
2023-04-03T23:26:42.669Z,100656.16
2023-04-03T23:29:10.116Z,100652.75
2023-04-03T23:31:38.050Z,100647.84
2023-04-03T23:34:05.595Z,100646.66
2023-04-03T23:36:33.681Z,100640.00
2023-04-03T23:39:01.149Z,100639.91
2023-04-03T23:41:29.043Z,100639.41
2023-04-03T23:43:56.451Z,100643.50
2023-04-03T23:46:24.695Z,100648.88
2023-04-03T23:48:52.249Z,100644.13
2023-04-03T23:51:20.052Z,100643.03
2023-04-03T23:53:49.348Z,100641.00
2023-04-03T23:56:17.482Z,100648.56
2023-04-03T23:58:45.048Z,100638.66
